createdAt,value
2022-09-12T00:01:13.134Z,22.35
2022-09-12T00:03:40.926Z,22.64
2022-09-12T00:06:22.912Z,21.94
2022-09-12T00:08:59.767Z,22.27
2022-09-12T00:11:28.308Z,22.76
2022-09-12T00:14:00.692Z,22.67
2022-09-12T00:16:31.983Z,22.58
2022-09-12T00:19:00.483Z,22.44
2022-09-12T00:21:28.889Z,22.42
2022-09-12T00:23:56.839Z,22.25
2022-09-12T00:26:24.796Z,22.52
2022-09-12T00:28:52.578Z,22.43
2022-09-12T00:31:26.485Z,22.27
2022-09-12T00:33:57.372Z,22.31
2022-09-12T00:36:26.820Z,22.13
2022-09-12T00:38:54.941Z,21.96
2022-09-12T00:41:27.906Z,22.15
2022-09-12T00:43:59.879Z,22.26
2022-09-12T00:46:36.580Z,22.19
2022-09-12T00:49:16.223Z,22.06
2022-09-12T00:51:50.603Z,22.15
2022-09-12T00:54:23.519Z,22.00
2022-09-12T00:56:56.000Z,22.11
2022-09-12T00:59:34.756Z,21.96
2022-09-12T01:02:02.641Z,21.95
2022-09-12T01:04:30.709Z,22.00
2022-09-12T01:06:58.834Z,21.88
2022-09-12T01:09:26.967Z,21.84
2022-09-12T01:11:55.362Z,21.89
2022-09-12T01:14:23.098Z,21.82
2022-09-12T01:16:51.308Z,21.90
2022-09-12T01:19:24.499Z,21.68
2022-09-12T01:22:03.700Z,21.61
2022-09-12T01:24:42.676Z,21.71
2022-09-12T01:27:18.564Z,21.67
2022-09-12T01:30:10.699Z,21.67
2022-09-12T01:32:38.036Z,21.64
2022-09-12T01:35:23.711Z,21.69
2022-09-12T01:38:09.299Z,21.68
2022-09-12T01:41:12.953Z,21.52
2022-09-12T01:44:06.639Z,21.44
2022-09-12T01:46:49.245Z,21.36
2022-09-12T01:49:29.525Z,21.47
2022-09-12T01:52:21.584Z,21.43
2022-09-12T01:54:59.410Z,21.44
2022-09-12T01:57:43.701Z,21.40
2022-09-12T02:00:12.644Z,21.34
2022-09-12T02:02:54.729Z,21.28
2022-09-12T02:05:22.178Z,21.38
2022-09-12T02:08:01.378Z,21.42
2022-09-12T02:10:37.706Z,21.35
2022-09-12T02:13:15.909Z,21.32
2022-09-12T02:15:53.044Z,21.17
2022-09-12T02:18:21.700Z,21.30
2022-09-12T02:20:51.715Z,21.44
2022-09-12T02:23:30.918Z,21.46
2022-09-12T02:26:05.984Z,21.27
2022-09-12T02:28:38.173Z,21.12
2022-09-12T02:31:08.929Z,21.29
2022-09-12T02:33:49.278Z,21.34
2022-09-12T02:36:40.692Z,21.40
2022-09-12T02:39:08.476Z,21.52
2022-09-12T02:41:36.447Z,21.48
2022-09-12T02:44:05.687Z,21.42
2022-09-12T02:46:44.138Z,21.15
2022-09-12T02:49:11.835Z,21.16
2022-09-12T02:51:40.601Z,20.98
2022-09-12T02:54:10.058Z,20.88
2022-09-12T02:56:42.165Z,20.87
2022-09-12T02:59:12.777Z,20.70
2022-09-12T03:01:55.134Z,20.70
2022-09-12T03:04:31.538Z,20.79
2022-09-12T03:07:10.260Z,20.80
2022-09-12T03:09:51.662Z,20.67
2022-09-12T03:12:42.407Z,20.70
2022-09-12T03:15:31.682Z,20.86
2022-09-12T03:18:06.262Z,20.71
2022-09-12T03:20:53.563Z,20.78
2022-09-12T03:23:30.382Z,20.65
2022-09-12T03:26:06.077Z,20.77
2022-09-12T03:28:35.701Z,20.58
2022-09-12T03:31:13.729Z,20.73
2022-09-12T03:33:41.306Z,20.82
2022-09-12T03:36:24.247Z,20.87
2022-09-12T03:38:52.447Z,20.84
2022-09-12T03:41:20.781Z,20.79
2022-09-12T03:43:48.444Z,20.82
2022-09-12T03:46:16.092Z,20.60
2022-09-12T03:48:43.836Z,20.66
2022-09-12T03:51:11.612Z,20.73
2022-09-12T03:53:39.050Z,20.87
2022-09-12T03:56:08.648Z,20.85
2022-09-12T03:58:36.954Z,20.96
2022-09-12T04:01:14.460Z,20.92
2022-09-12T04:03:44.012Z,21.03
2022-09-12T04:06:14.811Z,20.99
2022-09-12T04:08:44.007Z,20.95
2022-09-12T04:11:15.705Z,20.92
2022-09-12T04:13:45.005Z,21.09
2022-09-12T04:16:14.640Z,21.15
2022-09-12T04:18:42.386Z,21.09
2022-09-12T04:21:16.579Z,21.27
2022-09-12T04:23:44.634Z,21.29
2022-09-12T04:26:13.823Z,21.33
2022-09-12T04:28:42.241Z,21.53
2022-09-12T04:31:18.548Z,21.93
2022-09-12T04:33:46.681Z,21.50
2022-09-12T04:36:17.491Z,21.39
2022-09-12T04:38:47.225Z,21.27
2022-09-12T04:41:17.254Z,21.33
2022-09-12T04:43:49.012Z,21.44
2022-09-12T04:46:19.969Z,20.91
2022-09-12T04:48:49.803Z,21.03
2022-09-12T04:51:31.015Z,21.05
2022-09-12T04:54:01.587Z,21.10
2022-09-12T04:56:30.373Z,21.18
2022-09-12T04:58:59.371Z,21.04
2022-09-12T05:01:28.274Z,20.99
2022-09-12T05:03:56.502Z,21.04
2022-09-12T05:06:27.246Z,20.83
2022-09-12T05:08:56.520Z,21.10
2022-09-12T05:11:46.755Z,21.25
2022-09-12T05:14:17.387Z,20.93
2022-09-12T05:16:49.185Z,20.85
2022-09-12T05:19:17.740Z,21.10
2022-09-12T05:21:45.260Z,20.87
2022-09-12T05:24:12.898Z,20.89
2022-09-12T05:26:40.425Z,20.93
2022-09-12T05:29:08.028Z,20.84
2022-09-12T05:31:35.812Z,20.80
2022-09-12T05:34:09.174Z,20.73
2022-09-12T05:36:39.907Z,20.88
2022-09-12T05:39:07.428Z,21.30
2022-09-12T05:41:36.072Z,21.30
2022-09-12T05:44:05.667Z,21.29
2022-09-12T05:46:39.298Z,21.47
2022-09-12T05:49:08.150Z,21.42
2022-09-12T05:51:41.504Z,21.50
2022-09-12T05:54:10.123Z,21.78
2022-09-12T05:56:39.652Z,21.55
2022-09-12T05:59:13.071Z,21.59
2022-09-12T06:01:41.064Z,21.39
2022-09-12T06:04:09.331Z,21.47
2022-09-12T06:06:41.535Z,21.61
2022-09-12T06:09:10.045Z,21.75
2022-09-12T06:11:40.791Z,21.68
2022-09-12T06:14:10.040Z,21.87
2022-09-12T06:16:38.322Z,21.89
2022-09-12T06:19:08.399Z,21.82
2022-09-12T06:21:35.964Z,21.69
2022-09-12T06:24:03.565Z,21.71
2022-09-12T06:26:31.317Z,21.91
2022-09-12T06:29:00.814Z,22.02
2022-09-12T06:31:31.666Z,22.23
2022-09-12T06:34:04.928Z,22.41
2022-09-12T06:36:36.382Z,22.27
2022-09-12T06:39:07.802Z,22.44
2022-09-12T06:41:35.410Z,22.78
2022-09-12T06:44:03.536Z,23.05
2022-09-12T06:46:31.305Z,23.20
2022-09-12T06:49:00.612Z,23.08
2022-09-12T06:51:29.236Z,23.17
2022-09-12T06:53:57.678Z,23.17
2022-09-12T06:56:27.236Z,23.62
2022-09-12T06:58:57.416Z,23.93
2022-09-12T07:01:27.169Z,23.79
2022-09-12T07:04:00.207Z,23.82
2022-09-12T07:06:32.031Z,23.89
2022-09-12T07:09:01.183Z,23.96
2022-09-12T07:11:34.126Z,24.52
2022-09-12T07:14:04.059Z,24.48
2022-09-12T07:16:31.995Z,23.94
2022-09-12T07:19:01.515Z,24.09
2022-09-12T07:21:29.808Z,24.33
2022-09-12T07:23:58.289Z,24.46
2022-09-12T07:26:28.075Z,24.80
2022-09-12T07:29:12.826Z,24.63
2022-09-12T07:31:45.190Z,24.19
2022-09-12T07:34:12.913Z,24.53
2022-09-12T07:36:40.294Z,24.38
2022-09-12T07:39:07.574Z,24.07
2022-09-12T07:41:35.135Z,24.29
2022-09-12T07:44:04.032Z,24.46
2022-09-12T07:46:32.006Z,24.89
2022-09-12T07:49:00.853Z,25.23
2022-09-12T07:51:30.276Z,25.31
2022-09-12T07:53:57.990Z,25.01
2022-09-12T07:56:30.211Z,25.33
2022-09-12T07:58:58.967Z,25.07
2022-09-12T08:01:26.895Z,25.15
2022-09-12T08:03:57.327Z,25.63
2022-09-12T08:06:26.818Z,25.30
2022-09-12T08:08:56.430Z,25.35
2022-09-12T08:11:25.565Z,25.44
2022-09-12T08:13:55.832Z,25.56
2022-09-12T08:16:26.244Z,25.43
2022-09-12T08:18:53.673Z,25.63
2022-09-12T08:21:26.304Z,25.63
2022-09-12T08:23:56.331Z,25.68
2022-09-12T08:26:24.830Z,25.60
2022-09-12T08:28:53.990Z,25.74
2022-09-12T08:31:23.045Z,25.62
2022-09-12T08:33:51.073Z,25.61
2022-09-12T08:36:24.267Z,26.06
2022-09-12T08:39:00.024Z,26.33
2022-09-12T08:41:35.086Z,26.39
2022-09-12T08:44:17.676Z,25.93
2022-09-12T08:47:06.540Z,26.03
2022-09-12T08:49:40.926Z,26.52
2022-09-12T08:52:15.657Z,27.02
2022-09-12T08:54:45.443Z,27.11
2022-09-12T08:57:15.220Z,26.93
2022-09-12T08:59:44.916Z,26.72
2022-09-12T09:02:46.390Z,26.53
2022-09-12T09:05:27.842Z,26.32
2022-09-12T09:08:21.984Z,26.61
2022-09-12T09:11:04.525Z,26.56
2022-09-12T09:14:05.389Z,26.91
2022-09-12T09:16:42.836Z,26.64
2022-09-12T09:19:21.090Z,26.58
2022-09-12T09:21:54.786Z,26.61
2022-09-12T09:24:27.226Z,26.67
2022-09-12T09:27:23.642Z,27.04
2022-09-12T09:29:56.069Z,27.26
2022-09-12T09:32:38.201Z,27.51
2022-09-12T09:35:37.976Z,27.52
2022-09-12T09:38:21.276Z,27.35
2022-09-12T09:41:24.030Z,27.49
2022-09-12T09:43:51.643Z,28.09
2022-09-12T09:46:19.350Z,28.24
2022-09-12T09:48:50.279Z,27.13
2022-09-12T09:51:26.158Z,26.86
2022-09-12T09:54:02.713Z,27.38
2022-09-12T09:56:34.615Z,27.02
2022-09-12T09:59:27.184Z,26.70
2022-09-12T10:02:05.886Z,26.64
2022-09-12T10:04:41.563Z,26.72
2022-09-12T10:07:24.723Z,26.53
2022-09-12T10:10:17.290Z,26.97
2022-09-12T10:12:45.669Z,27.08
2022-09-12T10:15:21.920Z,27.26
2022-09-12T10:17:51.165Z,27.13
2022-09-12T10:20:37.375Z,27.48
2022-09-12T10:23:37.916Z,27.41
2022-09-12T10:26:11.110Z,27.64
2022-09-12T10:28:40.112Z,28.06
2022-09-12T10:31:15.689Z,28.55
2022-09-12T10:34:02.358Z,28.35
2022-09-12T10:36:39.889Z,28.49
2022-09-12T10:39:17.854Z,27.62
2022-09-12T10:41:46.639Z,28.21
2022-09-12T10:44:26.119Z,28.21
2022-09-12T10:46:54.828Z,27.92
2022-09-12T10:49:29.270Z,28.50
2022-09-12T10:52:16.688Z,28.54
2022-09-12T10:54:45.507Z,28.48
2022-09-12T10:57:51.207Z,28.09
2022-09-12T11:00:27.419Z,28.55
2022-09-12T11:02:59.485Z,28.69
2022-09-12T11:05:36.773Z,28.70
2022-09-12T11:08:18.913Z,28.42
2022-09-12T11:11:09.920Z,28.50
2022-09-12T11:13:49.122Z,28.34
2022-09-12T11:16:41.075Z,28.76
2022-09-12T11:19:29.258Z,28.70
2022-09-12T11:22:18.221Z,28.94
2022-09-12T11:25:29.094Z,29.38
2022-09-12T11:28:17.920Z,29.48
2022-09-12T11:31:09.614Z,28.98
2022-09-12T11:33:42.961Z,28.99
2022-09-12T11:36:33.226Z,29.32
2022-09-12T11:39:14.994Z,28.93
2022-09-12T11:41:48.432Z,28.72
2022-09-12T11:44:24.533Z,29.15
2022-09-12T11:46:52.420Z,29.11
2022-09-12T11:49:39.984Z,29.55
2022-09-12T11:52:15.884Z,29.48
2022-09-12T11:54:52.925Z,29.75
2022-09-12T11:57:35.284Z,29.79
2022-09-12T12:00:19.663Z,29.44
2022-09-12T12:03:09.426Z,29.53
2022-09-12T12:05:57.937Z,29.73
2022-09-12T12:08:27.669Z,29.76
2022-09-12T12:10:56.455Z,29.77
2022-09-12T12:13:29.922Z,30.14
2022-09-12T12:16:05.667Z,29.60
2022-09-12T12:18:36.963Z,29.78
2022-09-12T12:21:29.376Z,29.75
2022-09-12T12:24:08.696Z,29.89
2022-09-12T12:26:39.103Z,29.78
2022-09-12T12:29:10.063Z,29.28
2022-09-12T12:32:02.158Z,29.53
2022-09-12T12:34:43.120Z,29.61
2022-09-12T12:37:42.934Z,29.93
2022-09-12T12:40:23.025Z,29.91
2022-09-12T12:42:50.977Z,30.54
2022-09-12T12:45:18.510Z,30.44
2022-09-12T12:47:49.545Z,30.24
2022-09-12T12:50:17.193Z,29.91
2022-09-12T12:52:58.890Z,30.12
2022-09-12T12:55:39.136Z,30.06
2022-09-12T12:58:22.333Z,30.15
2022-09-12T13:01:16.066Z,30.02
2022-09-12T13:04:11.559Z,29.88
2022-09-12T13:06:42.802Z,29.62
2022-09-12T13:09:22.250Z,30.24
2022-09-12T13:12:00.857Z,30.81
2022-09-12T13:14:43.182Z,30.51
2022-09-12T13:17:26.066Z,30.65
2022-09-12T13:20:26.131Z,31.02
2022-09-12T13:22:52.135Z,30.70
2022-09-12T13:25:34.330Z,30.57
2022-09-12T13:28:04.021Z,30.23
2022-09-12T13:30:34.464Z,30.16
2022-09-12T13:33:23.021Z,30.34
2022-09-12T13:36:02.140Z,30.29
2022-09-12T13:38:38.698Z,30.27
2022-09-12T13:41:21.359Z,30.18
2022-09-12T13:43:49.670Z,30.08
2022-09-12T13:46:28.326Z,30.10
2022-09-12T13:48:58.631Z,30.03
2022-09-12T13:51:31.502Z,29.51
2022-09-12T13:54:05.217Z,29.81
2022-09-12T13:56:32.622Z,30.14
2022-09-12T13:59:02.510Z,29.60
2022-09-12T14:01:40.245Z,29.20
2022-09-12T14:04:45.567Z,29.28
2022-09-12T14:07:17.523Z,29.52
2022-09-12T14:09:52.561Z,29.17
2022-09-12T14:12:26.462Z,29.13
2022-09-12T14:14:54.352Z,29.00
2022-09-12T14:17:29.863Z,28.96
2022-09-12T14:20:03.465Z,28.83
2022-09-12T14:22:32.614Z,29.02
2022-09-12T14:25:02.003Z,28.81
2022-09-12T14:27:37.662Z,29.23
2022-09-12T14:30:09.218Z,28.73
2022-09-12T14:32:36.994Z,28.82
2022-09-12T14:35:18.694Z,28.75
2022-09-12T14:37:49.796Z,28.98
2022-09-12T14:40:21.105Z,28.95
2022-09-12T14:42:50.875Z,28.76
2022-09-12T14:45:29.284Z,28.36
2022-09-12T14:47:58.722Z,28.64
2022-09-12T14:50:29.776Z,28.61
2022-09-12T14:53:21.033Z,29.16
2022-09-12T14:56:05.363Z,28.95
2022-09-12T14:58:33.547Z,29.17
2022-09-12T15:01:07.223Z,29.01
2022-09-12T15:03:52.019Z,28.72
2022-09-12T15:06:37.883Z,28.97
2022-09-12T15:09:13.574Z,28.94
2022-09-12T15:11:41.104Z,28.61
2022-09-12T15:14:15.461Z,28.54
2022-09-12T15:16:43.048Z,28.48
2022-09-12T15:19:10.589Z,28.62
2022-09-12T15:21:37.956Z,28.46
2022-09-12T15:24:05.801Z,28.83
2022-09-12T15:26:33.360Z,28.47
2022-09-12T15:29:01.059Z,28.36
2022-09-12T15:31:32.638Z,28.51
2022-09-12T15:34:02.145Z,29.03
2022-09-12T15:36:29.925Z,28.86
2022-09-12T15:38:57.813Z,29.24
2022-09-12T15:41:31.345Z,29.32
2022-09-12T15:43:59.087Z,29.01
2022-09-12T15:46:26.542Z,29.00
2022-09-12T15:48:54.005Z,28.60
2022-09-12T15:51:22.346Z,28.80
2022-09-12T15:53:50.925Z,28.58
2022-09-12T15:56:20.164Z,28.34
2022-09-12T15:58:58.220Z,28.47
2022-09-12T16:01:28.137Z,28.39
2022-09-12T16:03:55.904Z,28.37
2022-09-12T16:06:24.085Z,28.74
2022-09-12T16:08:51.525Z,29.07
2022-09-12T16:11:24.649Z,29.00
2022-09-12T16:13:53.857Z,28.48
2022-09-12T16:16:21.590Z,28.64
2022-09-12T16:18:49.233Z,28.35
2022-09-12T16:21:16.898Z,28.11
2022-09-12T16:23:45.595Z,28.14
2022-09-12T16:26:13.451Z,27.97
2022-09-12T16:28:41.033Z,28.15
2022-09-12T16:31:11.781Z,28.50
2022-09-12T16:33:40.412Z,28.15
2022-09-12T16:36:10.904Z,28.15
2022-09-12T16:38:52.954Z,28.08
2022-09-12T16:41:22.470Z,27.92
2022-09-12T16:43:49.964Z,27.91
2022-09-12T16:46:22.782Z,28.08
2022-09-12T16:48:53.462Z,27.83
2022-09-12T16:51:24.056Z,27.92
2022-09-12T16:53:52.657Z,27.91
2022-09-12T16:56:20.672Z,27.94
2022-09-12T16:58:49.188Z,28.05
2022-09-12T17:01:22.151Z,28.03
2022-09-12T17:03:53.634Z,28.36
2022-09-12T17:06:21.975Z,27.99
2022-09-12T17:08:51.463Z,27.70
2022-09-12T17:11:21.908Z,27.70
2022-09-12T17:14:09.979Z,27.63
2022-09-12T17:16:39.996Z,27.64
2022-09-12T17:19:08.588Z,28.26
2022-09-12T17:21:36.468Z,28.17
2022-09-12T17:24:04.107Z,28.35
2022-09-12T17:26:31.988Z,28.64
2022-09-12T17:29:00.146Z,28.37
2022-09-12T17:31:27.984Z,28.27
2022-09-12T17:33:57.045Z,27.43
2022-09-12T17:36:24.769Z,27.33
2022-09-12T17:38:54.572Z,27.21
2022-09-12T17:41:25.254Z,26.87
2022-09-12T17:43:56.780Z,27.30
2022-09-12T17:46:29.812Z,27.79
2022-09-12T17:48:58.505Z,27.72
2022-09-12T17:51:29.199Z,27.73
2022-09-12T17:54:16.798Z,27.69
2022-09-12T17:56:52.236Z,27.67
2022-09-12T17:59:23.996Z,27.43
2022-09-12T18:02:10.506Z,27.43
2022-09-12T18:04:38.836Z,27.03
2022-09-12T18:07:06.832Z,27.21
2022-09-12T18:09:34.386Z,26.98
2022-09-12T18:12:05.794Z,26.69
2022-09-12T18:14:33.366Z,26.99
2022-09-12T18:17:01.842Z,27.03
2022-09-12T18:19:29.496Z,26.76
2022-09-12T18:21:57.221Z,26.86
2022-09-12T18:24:25.036Z,26.76
2022-09-12T18:26:52.604Z,26.68
2022-09-12T18:29:20.680Z,26.71
2022-09-12T18:31:49.048Z,26.38
2022-09-12T18:34:17.570Z,26.36
2022-09-12T18:36:47.833Z,26.50
2022-09-12T18:39:16.477Z,26.44
2022-09-12T18:41:44.493Z,26.19
2022-09-12T18:44:12.763Z,26.44
2022-09-12T18:46:40.408Z,26.49
2022-09-12T18:49:09.445Z,26.37
2022-09-12T18:51:37.564Z,26.06
2022-09-12T18:54:08.763Z,26.17
2022-09-12T18:56:38.459Z,26.06
2022-09-12T18:59:07.342Z,25.88
2022-09-12T19:01:37.283Z,25.97
2022-09-12T19:04:05.784Z,25.65
2022-09-12T19:06:36.682Z,25.67
2022-09-12T19:09:08.041Z,25.73
2022-09-12T19:11:38.649Z,25.63
2022-09-12T19:14:07.341Z,25.56
2022-09-12T19:16:38.425Z,25.59
2022-09-12T19:19:07.678Z,25.59
2022-09-12T19:21:38.704Z,25.72
2022-09-12T19:24:10.364Z,25.63
2022-09-12T19:26:40.174Z,25.53
2022-09-12T19:29:08.935Z,25.55
2022-09-12T19:31:36.696Z,25.41
2022-09-12T19:34:06.861Z,25.43
2022-09-12T19:36:47.470Z,25.40
2022-09-12T19:39:17.582Z,25.35
2022-09-12T19:41:45.729Z,25.54
2022-09-12T19:44:13.775Z,25.45
2022-09-12T19:46:41.798Z,25.50
2022-09-12T19:49:10.751Z,25.38
2022-09-12T19:51:38.590Z,25.44
2022-09-12T19:54:06.327Z,25.63
2022-09-12T19:56:34.034Z,25.40
2022-09-12T19:59:01.542Z,25.33
2022-09-12T20:01:29.341Z,25.79
2022-09-12T20:03:58.206Z,25.73
2022-09-12T20:06:26.768Z,25.48
2022-09-12T20:08:55.092Z,25.78
2022-09-12T20:11:24.448Z,25.34
2022-09-12T20:13:52.703Z,25.92
2022-09-12T20:16:25.801Z,25.42
2022-09-12T20:18:54.678Z,25.31
2022-09-12T20:21:25.495Z,25.23
2022-09-12T20:23:53.112Z,25.15
2022-09-12T20:26:20.775Z,25.15
2022-09-12T20:28:48.638Z,25.16
2022-09-12T20:31:16.607Z,25.08
2022-09-12T20:33:46.616Z,25.08
2022-09-12T20:36:18.797Z,25.17
2022-09-12T20:38:51.953Z,24.92
2022-09-12T20:41:21.010Z,24.95
2022-09-12T20:43:52.462Z,24.92
2022-09-12T20:46:22.192Z,25.03
2022-09-12T20:48:51.461Z,24.83
2022-09-12T20:51:20.294Z,24.79
2022-09-12T20:53:48.571Z,24.82
2022-09-12T20:56:16.396Z,24.76
2022-09-12T20:58:44.777Z,24.50
2022-09-12T21:01:14.148Z,24.74
2022-09-12T21:03:43.722Z,24.86
2022-09-12T21:06:12.734Z,24.66
2022-09-12T21:08:40.662Z,24.73
2022-09-12T21:11:08.639Z,24.78
2022-09-12T21:13:37.011Z,24.83
2022-09-12T21:16:11.415Z,24.99
2022-09-12T21:18:39.391Z,25.15
2022-09-12T21:21:07.504Z,24.96
2022-09-12T21:23:34.880Z,24.89
2022-09-12T21:26:03.042Z,24.75
2022-09-12T21:28:31.107Z,24.67
2022-09-12T21:30:58.512Z,25.06
2022-09-12T21:33:26.555Z,24.86
2022-09-12T21:35:53.915Z,24.78
2022-09-12T21:38:21.729Z,25.50
2022-09-12T21:40:49.483Z,25.68
2022-09-12T21:43:16.921Z,25.21
2022-09-12T21:45:44.559Z,25.00
2022-09-12T21:48:12.246Z,24.75
2022-09-12T21:50:39.763Z,24.79
2022-09-12T21:53:07.639Z,24.86
2022-09-12T21:55:35.189Z,24.73
2022-09-12T21:58:02.653Z,24.66
2022-09-12T22:00:30.310Z,24.51
2022-09-12T22:02:59.231Z,24.67
2022-09-12T22:05:29.887Z,24.78
2022-09-12T22:07:57.485Z,24.96
2022-09-12T22:10:25.137Z,24.75
2022-09-12T22:12:52.910Z,24.74
2022-09-12T22:15:40.177Z,24.78
2022-09-12T22:18:08.047Z,24.56
2022-09-12T22:20:35.565Z,24.55
2022-09-12T22:23:24.793Z,24.47
2022-09-12T22:25:56.071Z,24.55
2022-09-12T22:28:25.125Z,24.56
2022-09-12T22:30:54.377Z,24.70
2022-09-12T22:33:22.079Z,24.33
2022-09-12T22:35:49.389Z,24.49
2022-09-12T22:38:16.833Z,24.45
2022-09-12T22:40:44.195Z,24.38
2022-09-12T22:43:11.918Z,24.23
2022-09-12T22:45:42.372Z,24.27
2022-09-12T22:48:09.986Z,24.23
2022-09-12T22:50:37.479Z,24.28
2022-09-12T22:53:05.024Z,24.27
2022-09-12T22:55:32.646Z,24.11
2022-09-12T22:58:00.139Z,24.13
2022-09-12T23:00:30.491Z,24.18
2022-09-12T23:02:58.426Z,24.20
2022-09-12T23:05:25.910Z,24.11
2022-09-12T23:07:53.349Z,24.16
2022-09-12T23:10:20.792Z,24.04
2022-09-12T23:12:48.115Z,24.09
2022-09-12T23:15:15.769Z,23.91
2022-09-12T23:17:43.220Z,24.11
2022-09-12T23:20:10.916Z,24.13
2022-09-12T23:22:38.452Z,24.00
2022-09-12T23:25:06.415Z,24.13
2022-09-12T23:27:34.933Z,24.34
2022-09-12T23:30:02.774Z,24.20
2022-09-12T23:32:30.329Z,24.06
2022-09-12T23:34:59.012Z,24.03
2022-09-12T23:37:27.004Z,23.81
2022-09-12T23:39:54.508Z,23.73
2022-09-12T23:42:22.288Z,24.03
2022-09-12T23:44:49.671Z,23.95
2022-09-12T23:47:17.635Z,23.79
2022-09-12T23:49:45.879Z,23.80
2022-09-12T23:52:13.346Z,23.71
2022-09-12T23:54:40.826Z,23.75
2022-09-12T23:57:08.312Z,23.88
2022-09-12T23:59:35.922Z,23.87
